Nearby METAR Reports

 

KSJC - San Jose, California, USA
Distance from station: NO 14km
Uppdaterad: 2020-11-24 01:53
Delvis molnigt
Delvis molnigt
 Vind från NNV
Vind: NNV 17 km/h
Temperatur: 13°C
Daggpunkt: 8°C
Luftfuktighet: 72%
Barometer: 1016.9 hPa
Clouds: Delvis molnigt
Visibility: 16 km
Cloud details: Few Clouds 244 m
Few Clouds 3353 m
Delvis molnigt 7620 m
2020/11/24 00:53 KSJC 240053Z 34009KT 10SM FEW008 FEW110 SCT250 13/08 A3003 RMK AO2 SLP167 T01330078
KNUQ - Moffett Nas/Mtn, California, USA
Distance from station: N 14km
Uppdaterad: 2020-11-15 11:00
NOT Current
Klart
Klart
 Vind från calm
Vind: Vindstilla
Temperatur: 6°C
Daggpunkt: 5°C
Luftfuktighet: 93%
Barometer: 1025.4 hPa
Clouds: Klart
Visibility: 16 km
2020/11/15 10:00 KNUQ 151000Z AUTO 00000KT 10SM CLR 06/05 A3028 RMK AO2
 
KPAO - Palo Alto, California, USA
Distance from station: NNV 23km
Uppdaterad: 2020-11-24 01:47
Klart
Klart
 Vind från NV
Vind: NV 17 km/h
Temperatur: 12°C
Daggpunkt: 7°C
Luftfuktighet: 72%
Barometer: 1016.9 hPa
Clouds: Klart
Visibility: 16 km
2020/11/24 00:47 KPAO 240047Z 32009KT 10SM SKC 12/07 A3003
KRHV - San Jose/Reid, California, USA
Distance from station: ONO 19km
Uppdaterad: 2020-11-24 01:50
Few Clouds
Few Clouds
 Vind från VNV
Vind: VNV 9 km/h
Temperatur: 14°C
Daggpunkt: 8°C
Luftfuktighet: 67%
Barometer: 1016.9 hPa
Clouds: Few Clouds
Visibility: 16 km
Cloud details: Few Clouds 4572 m
2020/11/24 00:50 KRHV 240050Z 30005KT 10SM FEW150 14/08 A3003
 
KOAK - Oakland, California, USA
Distance from station: NNV 50km
Uppdaterad: 2020-11-24 01:53
Few Clouds
Few Clouds
 Vind från VSV
Vind: VSV 13 km/h
Temperatur: 15°C
Daggpunkt: 9°C
Luftfuktighet: 68%
Barometer: 1016.9 hPa
Clouds: Few Clouds
Visibility: 16 km
Cloud details: Few Clouds 366 m
Few Clouds 6096 m
2020/11/24 00:53 KOAK 240053Z 25007KT 10SM FEW012 FEW200 15/09 A3003 RMK AO2 SLP169 T01500089
KSQL - San Carlos Airpo, California, USA
Distance from station: NV 34km
Uppdaterad: 2020-11-24 01:58
Few Clouds
Few Clouds
 Vind från V
Vind: V 19 km/h
Temperatur: 13°C
Daggpunkt: 7°C
Luftfuktighet: 67%
Barometer: 1016.9 hPa
Clouds: Few Clouds
Visibility: 16 km
Cloud details: Few Clouds 6096 m
2020/11/24 00:58 KSQL 240058Z 28010KT 10SM FEW200 13/07 A3003
 
KSFO - San Francisco, California, USA
Distance from station: NV 49km
Uppdaterad: 2020-11-24 01:56
Few Clouds
Few Clouds
 Vind från V
Vind: V 22 km/h
Temperatur: 13°C
Daggpunkt: 8°C
Luftfuktighet: 72%
Barometer: 1016.6 hPa
Clouds: Few Clouds
Visibility: 16 km
Cloud details: Few Clouds 6096 m
2020/11/24 00:56 KSFO 240056Z 27012KT 10SM FEW200 13/08 A3002 RMK AO2 SLP166 T01330078
KE16 - San Martin, California, USA
Distance from station: OSO 43km
Uppdaterad: 2020-11-24 02:35
Klart
Klart
 Vind från NV
Vind: NV 9 km/h
Temperatur: 13°C
Daggpunkt: 6°C
Luftfuktighet: 63%
Barometer: 1017.3 hPa
Clouds: Klart
Visibility: 16 km
2020/11/24 01:35 KE16 240135Z AUTO 31005KT 10SM CLR 13/06 A3004 RMK AO2
 
KWVI - Watsonville, California, USA
Distance from station: SSO 44km
Uppdaterad: 2020-11-24 01:53
Klart
Klart
 Vind från S
Vind: S 6 km/h
Temperatur: 11°C
Daggpunkt: 8°C
Luftfuktighet: 82%
Barometer: 1016.9 hPa
Clouds: Klart
Visibility: 16 km
2020/11/24 00:53 KWVI 240053Z AUTO 17003KT 10SM CLR 11/08 A3003 RMK AO2 SLP168 T01110083
KHAF - Half Moon Bay, California, USA
Distance from station: VNV 50km
Uppdaterad: 2020-11-24 02:35
Haze, Klart
Haze, Klart
 Vind från NNV
Vind: NNV 17 km/h
Temperatur: 12°C
Daggpunkt: 8°C
Luftfuktighet: 77%
Barometer: 1017.6 hPa
Summering: Haze
Clouds: Klart
Visibility: 6 km
2020/11/24 01:35 KHAF 240135Z AUTO 34009KT 4SM HZ CLR 12/08 A3005 RMK AO2
 
KHWD - Hayward, California, USA
Distance from station: N 44km
Uppdaterad: 2020-11-24 01:54
Klart
Klart
 Vind från V
Vind: V 7 km/h
Temperatur: 14°C
Daggpunkt: 8°C
Luftfuktighet: 67%
Barometer: 1016.9 hPa
Clouds: Klart
Visibility: 16 km
2020/11/24 00:54 KHWD 240054Z 27004KT 10SM CLR 14/08 A3003 RMK AO2 SLP177 T01390083
KLVK - Livermore, California, USA
Distance from station: NNO 51km
Uppdaterad: 2020-11-24 01:53
Klart
Klart
 Vind från VNV
Vind: VNV 11 km/h
Temperatur: 14°C
Daggpunkt: 8°C
Luftfuktighet: 67%
Barometer: 1016.3 hPa
Clouds: Klart
Visibility: 16 km
2020/11/24 00:53 KLVK 240053Z 29006KT 10SM CLR 14/08 A3001 RMK AO2 SLP160 T01390078